ASN logo
ASN Wikibase Occurrence # 176584
Last updated: 19 August 2017
This information is added by users of ASN. Neither ASN nor the Flight Safety Foundation are responsible for the completeness or correctness of this information. If you feel this information is incomplete or incorrect, you can submit corrected information.

Date:02-JUN-2015
Time:06:34 UTC
Type:Silhouette image of generic B738 model; specific model in this crash may look slightly different
Boeing 737-86N (WL)
Owner/operator:Garuda Indonesia Airways
Registration: PK-GFA
C/n / msn: 36549/3331
Fatalities:Fatalities: 0 / Occupants: 153
Other fatalities:0
Airplane damage: Minor
Category:Serious incident
Location:Ujung Pandang-Hasanudin Airport (UPG/WAAA) -   Indonesia
Phase: Landing
Nature:Domestic Scheduled Passenger
Departure airport:Jakarta-Soekarno-Hatta International Airport (CGK/WIII)
Destination airport:Ujung Pandang-Hasanudin Airport (UPG/WAAA)
Investigating agency: NTSC Indonesia
Narrative:
A Boeing 737-800 aircraft, registration PK-GFA was being operated by Garuda Indonesia on scheduled passenger flight GA618 from Jakarta-Soekarno Hatta Airport, to Makassar-Sultan Hasanuddin Airport in Indonesia. The Pilot in Command (PIC) acted as Pilot Flying (PF) while the Second in Command (SIC) acted as Pilot Monitoring (PM).
The calculation of the required runway length at Makassar for the estimated aircraft landing weight with flaps 30 configuration was approximately 2,100 meters.
At approximately 06:20 UTC the Hasanuddin Tower controllers noticed black and thick clouds formation on the east of the airport. The final approach area of runway 03 gradually became covered by clouds. The Hasanuddin Tower controllers discussed with Ujung Approach controller and agreed that the runway in use needed to be changed to runway 13. The controllers assumed that the cloud formations were cumulonimbus, however did not understand what stage of the cumulonimbus. The controllers also did not recognize any visual sign of windshear as they never been trained for windshear recognition.
During the ILS runway 13 approach, the crew noticed that it was cloudy on the east of the airport and it was raining the end of runway 13 and approximately 1/4 part of the runway was wet on the end of runway 13.
At approximately 100 ft Above Ground Level (AGL), the PM informed the PF that the tail wind was up to 10 kts and cross wind 10 kts from the right side of aircraft.
During landing flare, the thrust levers were closed however the aircraft floated. The Cockpit Voice Recorder (CVR) data revealed that the interval between Enhanced Ground Proximity Warning System (EGPWS) call ‘ten’ to touchdown was 16 seconds while the Flight Data Recorder (FDR) recorded that after passing 20 ft to touchdown was 13 seconds. Floating for 13 seconds with the current speed it was calculated that the aircraft travelled approximately 1,075 meters. The aircraft touched down after passing taxiway Charlie.
The flight crew did not consider a go around as they were aware that the takeoff area of runway 13 was a mountainous area that might jeopardize the flight.
The aircraft stopped at the left side of the stopway with the nose landing gear and left main landing gear stuck in the mud while the right main landing gear remained on the stopway pavement. No one was injured in this serious incident.

Contributing Factors: Unanticipated wind condition has made the pilot did not aware to the wind direction changes and resulted the aircraft floated for 13 seconds and touched down on the middle of the runway.

Weather reported about the time of the incident (06:30 UTC)
WAAA 020730Z VRB07KT 0800 +TSRA FEW017CB BKN018 25/25 Q1010 TEMPO TL0800 VRB08G20KT 800 TSRA FEW017CB BKN019
WAAA 020700Z 06010G20KT 350V110 0500 +TSRA FEW017CB BKN018 24/24 Q1009 TEMPO TL0800 10010G20KT 500 TSRA FEW017CB BKN019
WAAA 020630Z 22009KT 180V250 3000 TSRA FEW018CB SCT019 30/28 Q1009 TEMPO TL0800 24010G20KT 2000 TSRA FEW017CB BKN019
WAAA 020600Z 25010KT 200V280 9999 TS FEW018CB SCT019 32/26 Q1009 NOSIG
WAAA 020530Z 24007KT 200V290 9999 FEW019CB 33/26 Q1009 NOSIG

Sources:

Safety recommendations:

Safety recommendation 04.O-2016-7.1 issued 4 January 2017 by NTSC to Garuda
Safety recommendation 04.O-2016-8.1 issued 4 January 2017 by NTSC to Garuda
Safety recommendation 04.O-2016-9.1 issued 4 January 2017 by NTSC to AirNav Indonesia

Accident investigation:
cover
Investigating agency: NTSC Indonesia
Status: Investigation completed
Duration: 1 year and 7 months
Accident number: KNKT.15.06.13.04
Download report: Final report

Images:





Revision history:

Date/timeContributorUpdates
02-Jun-2015 08:43 harro Added
02-Jun-2015 08:47 harro Updated [Time, Operator, Departure airport, Embed code, Narrative]
02-Jun-2015 15:16 Geno Updated [Total fatalities, Source]
05-Jan-2017 15:45 harro Updated [Time, Total fatalities, Source, Embed code, Damage, Narrative, Photo, ]
05-Jan-2017 15:46 harro Updated [Photo, ]
05-Jan-2017 15:47 harro Updated [Photo, ]
05-Jan-2017 15:48 harro Updated [Photo, ]
05-Jan-2017 18:35 harro Updated [Narrative]
05-Jan-2017 18:45 harro Updated [Cn, Narrative]

Corrections or additions? ... Edit this accident description